sensor_id;sensor_type;location;lat;lon;timestamp;pressure;altitude;pressure_sealevel;temperature;humidity
40948;BME280;49382;-25.924;28.194;2022-12-01T00:02:25;85147.35;;;21.01;42.40
40948;BME280;49382;-25.924;28.194;2022-12-01T00:04:50;85149.00;;;21.09;41.68
40948;BME280;49382;-25.924;28.194;2022-12-01T00:07:16;85149.47;;;21.09;41.68
40948;BME280;49382;-25.924;28.194;2022-12-01T00:09:42;85148.26;;;20.84;41.65
40948;BME280;49382;-25.924;28.194;2022-12-01T00:12:08;85146.47;;;20.68;42.11
40948;BME280;49382;-25.924;28.194;2022-12-01T00:14:33;85150.85;;;20.39;42.39
40948;BME280;49382;-25.924;28.194;2022-12-01T00:16:59;85154.96;;;20.53;42.39
40948;BME280;49382;-25.924;28.194;2022-12-01T00:19:26;85153.78;;;20.25;42.95
40948;BME280;49382;-25.924;28.194;2022-12-01T00:21:51;85149.60;;;21.88;40.32
40948;BME280;49382;-25.924;28.194;2022-12-01T00:24:17;85144.00;;;20.53;42.19
40948;BME280;49382;-25.924;28.194;2022-12-01T00:26:43;85146.81;;;20.98;41.74
40948;BME280;49382;-25.924;28.194;2022-12-01T00:29:09;85147.23;;;20.83;41.92
40948;BME280;49382;-25.924;28.194;2022-12-01T00:31:34;85148.50;;;21.85;40.04
40948;BME280;49382;-25.924;28.194;2022-12-01T00:34:00;85150.21;;;20.54;42.44
40948;BME280;49382;-25.924;28.194;2022-12-01T00:36:26;85146.70;;;20.03;42.80
40948;BME280;49382;-25.924;28.194;2022-12-01T00:38:53;85148.87;;;20.69;42.34
40948;BME280;49382;-25.924;28.194;2022-12-01T00:41:18;85146.95;;;21.11;41.81
40948;BME280;49382;-25.924;28.194;2022-12-01T00:43:43;85148.34;;;20.92;42.05
40948;BME280;49382;-25.924;28.194;2022-12-01T00:46:09;85148.03;;;20.02;43.54
40948;BME280;49382;-25.924;28.194;2022-12-01T00:48:35;85144.57;;;19.57;44.98
40948;BME280;49382;-25.924;28.194;2022-12-01T00:51:00;85146.37;;;19.82;44.65
40948;BME280;49382;-25.924;28.194;2022-12-01T00:53:25;85149.04;;;19.83;43.97
40948;BME280;49382;-25.924;28.194;2022-12-01T00:55:52;85151.59;;;19.52;44.96
40948;BME280;49382;-25.924;28.194;2022-12-01T00:58:17;85148.86;;;19.02;46.03
40948;BME280;49382;-25.924;28.194;2022-12-01T01:00:43;85144.41;;;18.77;46.99
40948;BME280;49382;-25.924;28.194;2022-12-01T01:03:10;85142.95;;;18.56;47.37
40948;BME280;49382;-25.924;28.194;2022-12-01T01:05:35;85144.66;;;18.50;46.58
40948;BME280;49382;-25.924;28.194;2022-12-01T01:08:01;85145.66;;;19.42;45.65
40948;BME280;49382;-25.924;28.194;2022-12-01T01:10:26;85145.84;;;19.84;44.26
40948;BME280;49382;-25.924;28.194;2022-12-01T01:12:52;85142.84;;;19.76;43.96
40948;BME280;49382;-25.924;28.194;2022-12-01T01:15:18;85137.30;;;19.74;44.09
40948;BME280;49382;-25.924;28.194;2022-12-01T01:17:44;85132.15;;;19.40;45.21
40948;BME280;49382;-25.924;28.194;2022-12-01T01:20:11;85131.48;;;18.90;46.85
40948;BME280;49382;-25.924;28.194;2022-12-01T01:22:36;85133.72;;;19.40;46.13
40948;BME280;49382;-25.924;28.194;2022-12-01T01:25:02;85129.21;;;18.36;45.86
40948;BME280;49382;-25.924;28.194;2022-12-01T01:27:27;85129.70;;;18.51;47.43
40948;BME280;49382;-25.924;28.194;2022-12-01T01:29:53;85126.99;;;18.91;47.37
40948;BME280;49382;-25.924;28.194;2022-12-01T01:32:19;85125.76;;;17.76;49.45
40948;BME280;49382;-25.924;28.194;2022-12-01T01:34:45;85128.77;;;17.51;50.01
40948;BME280;49382;-25.924;28.194;2022-12-01T01:37:11;85129.68;;;18.30;48.72
40948;BME280;49382;-25.924;28.194;2022-12-01T01:39:37;85129.12;;;19.33;46.99
40948;BME280;49382;-25.924;28.194;2022-12-01T01:42:02;85130.86;;;19.04;46.45
40948;BME280;49382;-25.924;28.194;2022-12-01T01:46:54;85126.86;;;20.06;44.33
40948;BME280;49382;-25.924;28.194;2022-12-01T01:49:19;85129.93;;;21.07;42.89
40948;BME280;49382;-25.924;28.194;2022-12-01T01:51:48;85125.19;;;19.56;44.72
40948;BME280;49382;-25.924;28.194;2022-12-01T01:54:16;85125.35;;;18.82;43.41
40948;BME280;49382;-25.924;28.194;2022-12-01T01:56:37;85125.02;;;18.79;45.56
40948;BME280;49382;-25.924;28.194;2022-12-01T01:59:03;85127.55;;;17.42;48.95
40948;BME280;49382;-25.924;28.194;2022-12-01T02:01:28;85130.19;;;18.63;47.02
40948;BME280;49382;-25.924;28.194;2022-12-01T02:03:54;85129.22;;;17.47;48.73
40948;BME280;49382;-25.924;28.194;2022-12-01T02:06:21;85134.99;;;17.14;50.53
40948;BME280;49382;-25.924;28.194;2022-12-01T02:08:46;85138.47;;;17.27;51.85
40948;BME280;49382;-25.924;28.194;2022-12-01T02:11:27;85142.16;;;18.45;48.58
40948;BME280;49382;-25.924;28.194;2022-12-01T02:13:45;85145.73;;;18.11;47.60
40948;BME280;49382;-25.924;28.194;2022-12-01T02:16:08;85154.99;;;20.04;45.49
40948;BME280;49382;-25.924;28.194;2022-12-01T02:18:33;85156.56;;;19.89;44.26
40948;BME280;49382;-25.924;28.194;2022-12-01T02:23:37;85160.25;;;18.81;46.31
40948;BME280;49382;-25.924;28.194;2022-12-01T02:25:49;85160.70;;;18.34;46.41
40948;BME280;49382;-25.924;28.194;2022-12-01T02:30:39;85160.56;;;17.19;49.39
40948;BME280;49382;-25.924;28.194;2022-12-01T02:33:06;85163.37;;;17.23;49.92
40948;BME280;49382;-25.924;28.194;2022-12-01T02:35:34;85168.10;;;18.77;47.11
40948;BME280;49382;-25.924;28.194;2022-12-01T02:38:05;85172.58;;;18.68;46.90
40948;BME280;49382;-25.924;28.194;2022-12-01T02:40:21;85174.66;;;18.71;47.37
40948;BME280;49382;-25.924;28.194;2022-12-01T02:42:48;85177.60;;;18.33;48.22
40948;BME280;49382;-25.924;28.194;2022-12-01T02:45:10;85181.29;;;18.50;47.79
40948;BME280;49382;-25.924;28.194;2022-12-01T02:47:35;85179.88;;;19.59;45.77
40948;BME280;49382;-25.924;28.194;2022-12-01T02:50:00;85183.09;;;19.74;45.09
40948;BME280;49382;-25.924;28.194;2022-12-01T02:52:24;85185.28;;;19.43;45.70
40948;BME280;49382;-25.924;28.194;2022-12-01T02:54:50;85187.15;;;18.83;46.20
40948;BME280;49382;-25.924;28.194;2022-12-01T02:57:16;85188.76;;;17.74;47.72
40948;BME280;49382;-25.924;28.194;2022-12-01T02:59:41;85193.87;;;16.70;49.59
40948;BME280;49382;-25.924;28.194;2022-12-01T03:02:12;85191.01;;;17.83;48.86
40948;BME280;49382;-25.924;28.194;2022-12-01T03:04:45;85188.52;;;18.81;46.80
40948;BME280;49382;-25.924;28.194;2022-12-01T03:07:01;85190.78;;;19.41;45.80
40948;BME280;49382;-25.924;28.194;2022-12-01T03:09:28;85193.91;;;20.02;43.97
40948;BME280;49382;-25.924;28.194;2022-12-01T03:11:54;85199.97;;;19.43;45.47
40948;BME280;49382;-25.924;28.194;2022-12-01T03:14:19;85202.51;;;20.18;43.48
40948;BME280;49382;-25.924;28.194;2022-12-01T03:16:46;85207.48;;;20.51;42.81
40948;BME280;49382;-25.924;28.194;2022-12-01T03:19:07;85211.61;;;20.81;42.32
40948;BME280;49382;-25.924;28.194;2022-12-01T03:21:34;85214.44;;;20.63;42.53
40948;BME280;49382;-25.924;28.194;2022-12-01T03:23:58;85215.63;;;20.00;43.51
40948;BME280;49382;-25.924;28.194;2022-12-01T03:26:22;85220.66;;;20.29;42.78
40948;BME280;49382;-25.924;28.194;2022-12-01T03:28:50;85229.13;;;20.83;42.03
40948;BME280;49382;-25.924;28.194;2022-12-01T03:31:13;85230.55;;;20.29;42.78
40948;BME280;49382;-25.924;28.194;2022-12-01T03:33:39;85235.02;;;21.08;41.38
40948;BME280;49382;-25.924;28.194;2022-12-01T03:36:04;85232.64;;;19.50;43.90
40948;BME280;49382;-25.924;28.194;2022-12-01T03:38:27;85234.30;;;20.57;43.25
40948;BME280;49382;-25.924;28.194;2022-12-01T03:40:54;85237.76;;;19.52;44.20
40948;BME280;49382;-25.924;28.194;2022-12-01T03:43:20;85243.28;;;18.86;45.64
40948;BME280;49382;-25.924;28.194;2022-12-01T03:45:48;85247.31;;;19.53;45.16
40948;BME280;49382;-25.924;28.194;2022-12-01T03:48:07;85250.96;;;18.98;45.72
40948;BME280;49382;-25.924;28.194;2022-12-01T03:50:37;85253.89;;;18.84;45.52
40948;BME280;49382;-25.924;28.194;2022-12-01T03:53:05;85258.26;;;19.22;45.76
40948;BME280;49382;-25.924;28.194;2022-12-01T03:55:26;85262.58;;;19.08;46.17
40948;BME280;49382;-25.924;28.194;2022-12-01T03:57:53;85262.85;;;19.80;45.23
40948;BME280;49382;-25.924;28.194;2022-12-01T04:00:16;85264.07;;;19.09;45.75
40948;BME280;49382;-25.924;28.194;2022-12-01T04:02:40;85269.85;;;19.73;44.61
40948;BME280;49382;-25.924;28.194;2022-12-01T04:05:06;85272.08;;;19.36;45.93
40948;BME280;49382;-25.924;28.194;2022-12-01T04:07:31;85276.80;;;18.97;45.98
40948;BME280;49382;-25.924;28.194;2022-12-01T04:09:57;85281.96;;;20.02;44.58
40948;BME280;49382;-25.924;28.194;2022-12-01T04:12:22;85281.61;;;19.69;44.95
40948;BME280;49382;-25.924;28.194;2022-12-01T04:14:47;85281.88;;;19.68;43.84
40948;BME280;49382;-25.924;28.194;2022-12-01T04:17:12;85281.54;;;19.68;43.33
40948;BME280;49382;-25.924;28.194;2022-12-01T04:19:37;85283.21;;;20.54;43.03
40948;BME280;49382;-25.924;28.194;2022-12-01T04:22:03;85283.26;;;19.43;43.49
40948;BME280;49382;-25.924;28.194;2022-12-01T04:24:29;85286.51;;;20.52;42.91
40948;BME280;49382;-25.924;28.194;2022-12-01T04:26:54;85290.00;;;20.16;42.99
40948;BME280;49382;-25.924;28.194;2022-12-01T04:29:19;85289.83;;;21.09;41.80
40948;BME280;49382;-25.924;28.194;2022-12-01T04:31:44;85289.10;;;20.79;42.12
40948;BME280;49382;-25.924;28.194;2022-12-01T04:34:10;85290.76;;;20.61;42.03
40948;BME280;49382;-25.924;28.194;2022-12-01T04:36:35;85287.25;;;20.79;41.31
40948;BME280;49382;-25.924;28.194;2022-12-01T04:39:02;85295.69;;;20.39;41.08
40948;BME280;49382;-25.924;28.194;2022-12-01T04:41:27;85301.60;;;20.70;41.32
40948;BME280;49382;-25.924;28.194;2022-12-01T04:43:53;85304.01;;;20.69;41.16
40948;BME280;49382;-25.924;28.194;2022-12-01T04:46:19;85304.77;;;21.31;40.37
40948;BME280;49382;-25.924;28.194;2022-12-01T04:48:45;85306.05;;;21.82;39.67
40948;BME280;49382;-25.924;28.194;2022-12-01T04:51:10;85307.83;;;21.73;40.04
40948;BME280;49382;-25.924;28.194;2022-12-01T04:53:36;85308.36;;;21.81;39.48
40948;BME280;49382;-25.924;28.194;2022-12-01T04:56:02;85311.77;;;21.38;40.57
40948;BME280;49382;-25.924;28.194;2022-12-01T04:58:27;85307.62;;;21.41;39.64
40948;BME280;49382;-25.924;28.194;2022-12-01T05:00:53;85304.46;;;21.87;39.39
40948;BME280;49382;-25.924;28.194;2022-12-01T05:03:19;85309.39;;;22.17;40.31
40948;BME280;49382;-25.924;28.194;2022-12-01T05:05:44;85302.74;;;21.44;39.91
40948;BME280;49382;-25.924;28.194;2022-12-01T05:08:10;85311.28;;;22.54;38.74
40948;BME280;49382;-25.924;28.194;2022-12-01T05:10:36;85309.92;;;22.06;39.44
40948;BME280;49382;-25.924;28.194;2022-12-01T05:13:02;85308.11;;;22.25;40.02
40948;BME280;49382;-25.924;28.194;2022-12-01T05:15:28;85310.84;;;22.30;38.74
40948;BME280;49382;-25.924;28.194;2022-12-01T05:17:53;85309.14;;;22.40;38.13
40948;BME280;49382;-25.924;28.194;2022-12-01T05:20:22;85313.84;;;22.56;37.72
40948;BME280;49382;-25.924;28.194;2022-12-01T05:22:44;85313.74;;;22.60;40.20
40948;BME280;49382;-25.924;28.194;2022-12-01T05:25:10;85318.06;;;22.23;40.20
40948;BME280;49382;-25.924;28.194;2022-12-01T05:27:35;85314.47;;;22.52;38.36
40948;BME280;49382;-25.924;28.194;2022-12-01T05:30:02;85316.83;;;22.06;41.85
40948;BME280;49382;-25.924;28.194;2022-12-01T05:32:27;85315.94;;;23.13;40.22
40948;BME280;49382;-25.924;28.194;2022-12-01T05:34:53;85316.97;;;21.88;40.91
40948;BME280;49382;-25.924;28.194;2022-12-01T05:37:19;85317.48;;;23.18;41.25
40948;BME280;49382;-25.924;28.194;2022-12-01T05:39:45;85316.39;;;21.90;40.16
40948;BME280;49382;-25.924;28.194;2022-12-01T05:42:10;85315.12;;;22.00;40.61
40948;BME280;49382;-25.924;28.194;2022-12-01T05:44:36;85310.02;;;23.08;38.18
40948;BME280;49382;-25.924;28.194;2022-12-01T05:47:01;85312.28;;;22.71;39.37
40948;BME280;49382;-25.924;28.194;2022-12-01T05:49:26;85317.22;;;23.88;41.33
40948;BME280;49382;-25.924;28.194;2022-12-01T05:51:52;85313.23;;;23.37;38.71
40948;BME280;49382;-25.924;28.194;2022-12-01T05:54:17;85310.89;;;23.25;37.85
40948;BME280;49382;-25.924;28.194;2022-12-01T05:56:43;85307.46;;;23.25;38.81
40948;BME280;49382;-25.924;28.194;2022-12-01T05:59:08;85306.39;;;22.92;39.53
40948;BME280;49382;-25.924;28.194;2022-12-01T06:01:33;85306.21;;;22.57;41.98
40948;BME280;49382;-25.924;28.194;2022-12-01T06:03:59;85300.85;;;23.63;39.57
40948;BME280;49382;-25.924;28.194;2022-12-01T06:06:25;85303.53;;;25.36;37.61
40948;BME280;49382;-25.924;28.194;2022-12-01T06:08:51;85300.95;;;24.93;37.07
40948;BME280;49382;-25.924;28.194;2022-12-01T06:11:17;85303.03;;;24.51;37.60
40948;BME280;49382;-25.924;28.194;2022-12-01T06:13:42;85301.10;;;25.24;37.22
40948;BME280;49382;-25.924;28.194;2022-12-01T06:16:08;85298.74;;;24.73;37.29
40948;BME280;49382;-25.924;28.194;2022-12-01T06:18:36;85297.64;;;25.83;35.32
40948;BME280;49382;-25.924;28.194;2022-12-01T06:21:00;85293.77;;;25.54;35.63
40948;BME280;49382;-25.924;28.194;2022-12-01T06:23:26;85297.00;;;26.18;35.09
40948;BME280;49382;-25.924;28.194;2022-12-01T06:25:51;85291.71;;;26.94;33.92
40948;BME280;49382;-25.924;28.194;2022-12-01T06:28:17;85288.57;;;25.04;35.96
40948;BME280;49382;-25.924;28.194;2022-12-01T06:30:43;85290.67;;;25.06;36.94
40948;BME280;49382;-25.924;28.194;2022-12-01T06:33:09;85290.04;;;24.95;35.97
40948;BME280;49382;-25.924;28.194;2022-12-01T06:35:34;85291.71;;;24.59;37.30
40948;BME280;49382;-25.924;28.194;2022-12-01T06:38:00;85289.12;;;23.90;38.17
40948;BME280;49382;-25.924;28.194;2022-12-01T06:40:26;85287.09;;;24.97;40.02
40948;BME280;49382;-25.924;28.194;2022-12-01T06:42:51;85289.54;;;24.49;38.28
40948;BME280;49382;-25.924;28.194;2022-12-01T06:45:17;85287.87;;;24.82;38.44
40948;BME280;49382;-25.924;28.194;2022-12-01T06:47:43;85286.64;;;24.73;38.61
40948;BME280;49382;-25.924;28.194;2022-12-01T06:50:10;85284.52;;;25.09;36.96
40948;BME280;49382;-25.924;28.194;2022-12-01T06:52:35;85290.99;;;25.89;36.85
40948;BME280;49382;-25.924;28.194;2022-12-01T06:55:00;85294.05;;;25.58;36.33
40948;BME280;49382;-25.924;28.194;2022-12-01T06:57:26;85295.37;;;25.58;36.74
40948;BME280;49382;-25.924;28.194;2022-12-01T06:59:52;85293.44;;;26.08;35.27
40948;BME280;49382;-25.924;28.194;2022-12-01T07:02:18;85295.85;;;24.71;41.61
40948;BME280;49382;-25.924;28.194;2022-12-01T07:04:44;85291.49;;;24.16;37.97
40948;BME280;49382;-25.924;28.194;2022-12-01T07:07:10;85290.34;;;25.79;37.28
40948;BME280;49382;-25.924;28.194;2022-12-01T07:09:35;85290.36;;;26.27;36.25
40948;BME280;49382;-25.924;28.194;2022-12-01T07:12:00;85288.64;;;26.23;35.09
40948;BME280;49382;-25.924;28.194;2022-12-01T07:14:26;85287.25;;;26.75;35.48
40948;BME280;49382;-25.924;28.194;2022-12-01T07:16:52;85287.19;;;27.24;34.91
40948;BME280;49382;-25.924;28.194;2022-12-01T07:19:17;85282.15;;;26.44;33.01
40948;BME280;49382;-25.924;28.194;2022-12-01T07:21:43;85278.47;;;27.66;32.74
40948;BME280;49382;-25.924;28.194;2022-12-01T07:24:09;85271.88;;;26.25;34.94
40948;BME280;49382;-25.924;28.194;2022-12-01T07:26:35;85273.45;;;27.28;33.93
40948;BME280;49382;-25.924;28.194;2022-12-01T07:29:00;85270.47;;;27.38;34.08
40948;BME280;49382;-25.924;28.194;2022-12-01T07:31:26;85267.91;;;26.74;33.68
40948;BME280;49382;-25.924;28.194;2022-12-01T07:33:52;85268.05;;;27.26;33.47
40948;BME280;49382;-25.924;28.194;2022-12-01T07:36:17;85264.80;;;27.35;33.40
40948;BME280;49382;-25.924;28.194;2022-12-01T07:38:42;85265.33;;;27.11;32.91
40948;BME280;49382;-25.924;28.194;2022-12-01T07:41:09;85267.03;;;27.35;32.96
40948;BME280;49382;-25.924;28.194;2022-12-01T07:43:34;85266.32;;;28.07;30.96
40948;BME280;49382;-25.924;28.194;2022-12-01T07:46:04;85264.65;;;27.88;31.19
40948;BME280;49382;-25.924;28.194;2022-12-01T07:48:25;85261.67;;;27.35;29.11
40948;BME280;49382;-25.924;28.194;2022-12-01T07:50:50;85261.85;;;27.03;30.05
40948;BME280;49382;-25.924;28.194;2022-12-01T07:53:16;85263.08;;;27.19;31.91
40948;BME280;49382;-25.924;28.194;2022-12-01T07:55:47;85258.95;;;27.63;31.34
40948;BME280;49382;-25.924;28.194;2022-12-01T07:58:06;85255.57;;;28.04;30.42
40948;BME280;49382;-25.924;28.194;2022-12-01T08:00:32;85250.64;;;27.81;30.27
40948;BME280;49382;-25.924;28.194;2022-12-01T08:02:57;85252.40;;;28.29;30.22
40948;BME280;49382;-25.924;28.194;2022-12-01T08:05:23;85250.24;;;28.42;29.92
40948;BME280;49382;-25.924;28.194;2022-12-01T08:07:49;85242.88;;;27.40;28.25
40948;BME280;49382;-25.924;28.194;2022-12-01T08:10:15;85242.48;;;28.02;29.28
40948;BME280;49382;-25.924;28.194;2022-12-01T08:12:40;85240.21;;;28.36;29.28
40948;BME280;49382;-25.924;28.194;2022-12-01T08:15:07;85240.09;;;28.61;28.06
40948;BME280;49382;-25.924;28.194;2022-12-01T08:17:31;85235.72;;;28.25;27.01
40948;BME280;49382;-25.924;28.194;2022-12-01T08:19:57;85228.74;;;27.62;26.43
40948;BME280;49382;-25.924;28.194;2022-12-01T08:22:23;85227.02;;;27.70;26.99
40948;BME280;49382;-25.924;28.194;2022-12-01T08:24:48;85225.34;;;28.32;27.56
40948;BME280;49382;-25.924;28.194;2022-12-01T08:27:14;85222.22;;;28.47;26.44
40948;BME280;49382;-25.924;28.194;2022-12-01T08:29:39;85219.75;;;28.60;28.32
40948;BME280;49382;-25.924;28.194;2022-12-01T08:32:05;85217.97;;;28.50;27.54
40948;BME280;49382;-25.924;28.194;2022-12-01T08:34:34;85210.89;;;28.53;27.60
40948;BME280;49382;-25.924;28.194;2022-12-01T08:36:57;85204.64;;;28.82;27.01
40948;BME280;49382;-25.924;28.194;2022-12-01T08:39:22;85199.61;;;28.24;27.52
40948;BME280;49382;-25.924;28.194;2022-12-01T08:41:48;85195.21;;;28.93;27.37
40948;BME280;49382;-25.924;28.194;2022-12-01T08:44:13;85188.61;;;28.92;27.32
40948;BME280;49382;-25.924;28.194;2022-12-01T08:46:39;85182.92;;;28.25;26.91
40948;BME280;49382;-25.924;28.194;2022-12-01T08:49:05;85178.16;;;28.84;27.47
40948;BME280;49382;-25.924;28.194;2022-12-01T08:51:30;85177.99;;;28.85;28.67
40948;BME280;49382;-25.924;28.194;2022-12-01T08:53:56;85179.86;;;29.03;27.66
40948;BME280;49382;-25.924;28.194;2022-12-01T08:56:22;85180.37;;;28.42;27.75
40948;BME280;49382;-25.924;28.194;2022-12-01T08:58:46;85174.66;;;28.92;26.94
40948;BME280;49382;-25.924;28.194;2022-12-01T09:01:13;85170.64;;;28.74;26.45
40948;BME280;49382;-25.924;28.194;2022-12-01T09:03:38;85166.40;;;28.72;26.37
40948;BME280;49382;-25.924;28.194;2022-12-01T09:06:05;85166.62;;;29.09;28.54
40948;BME280;49382;-25.924;28.194;2022-12-01T09:08:29;85162.07;;;28.98;27.38
40948;BME280;49382;-25.924;28.194;2022-12-01T09:10:54;85160.79;;;28.55;26.40
40948;BME280;49382;-25.924;28.194;2022-12-01T09:13:19;85160.48;;;28.99;26.92
40948;BME280;49382;-25.924;28.194;2022-12-01T09:15:53;85156.17;;;28.35;26.41
40948;BME280;49382;-25.924;28.194;2022-12-01T09:18:11;85151.35;;;28.71;25.24
40948;BME280;49382;-25.924;28.194;2022-12-01T09:20:37;85145.08;;;28.70;24.45
40948;BME280;49382;-25.924;28.194;2022-12-01T09:23:02;85145.29;;;29.32;24.72
40948;BME280;49382;-25.924;28.194;2022-12-01T09:25:28;85143.48;;;28.74;25.82
40948;BME280;49382;-25.924;28.194;2022-12-01T09:27:54;85142.83;;;27.85;27.49
40948;BME280;49382;-25.924;28.194;2022-12-01T09:30:20;85139.13;;;28.78;26.67
40948;BME280;49382;-25.924;28.194;2022-12-01T09:32:45;85133.96;;;28.72;30.77
40948;BME280;49382;-25.924;28.194;2022-12-01T09:35:11;85134.78;;;27.98;27.08
40948;BME280;49382;-25.924;28.194;2022-12-01T09:37:37;85127.78;;;28.11;27.15
40948;BME280;49382;-25.924;28.194;2022-12-01T09:40:03;85127.15;;;27.77;26.17
40948;BME280;49382;-25.924;28.194;2022-12-01T09:42:29;85124.35;;;28.72;26.29
40948;BME280;49382;-25.924;28.194;2022-12-01T09:44:55;85122.21;;;28.25;26.82
40948;BME280;49382;-25.924;28.194;2022-12-01T09:47:22;85119.74;;;28.74;25.28
40948;BME280;49382;-25.924;28.194;2022-12-01T09:49:51;85115.62;;;29.33;24.84
40948;BME280;49382;-25.924;28.194;2022-12-01T09:52:14;85112.36;;;29.11;25.00
40948;BME280;49382;-25.924;28.194;2022-12-01T09:54:37;85109.11;;;29.09;25.79
40948;BME280;49382;-25.924;28.194;2022-12-01T09:57:03;85106.38;;;29.53;26.19
40948;BME280;49382;-25.924;28.194;2022-12-01T09:59:32;85097.16;;;28.93;26.44
40948;BME280;49382;-25.924;28.194;2022-12-01T10:01:57;85091.03;;;29.21;26.45
40948;BME280;49382;-25.924;28.194;2022-12-01T10:04:24;85087.48;;;28.27;26.38
40948;BME280;49382;-25.924;28.194;2022-12-01T10:06:50;85082.45;;;28.54;26.17
40948;BME280;49382;-25.924;28.194;2022-12-01T10:09:19;85078.67;;;28.55;26.82
40948;BME280;49382;-25.924;28.194;2022-12-01T10:11:40;85074.11;;;28.75;25.45
40948;BME280;49382;-25.924;28.194;2022-12-01T10:14:05;85068.32;;;29.39;25.96
40948;BME280;49382;-25.924;28.194;2022-12-01T10:16:32;85062.19;;;29.06;27.52
40948;BME280;49382;-25.924;28.194;2022-12-01T10:18:57;85063.57;;;29.57;27.59
40948;BME280;49382;-25.924;28.194;2022-12-01T10:21:30;85055.57;;;29.29;27.23
40948;BME280;49382;-25.924;28.194;2022-12-01T10:23:54;85054.50;;;29.42;27.11
40948;BME280;49382;-25.924;28.194;2022-12-01T10:26:13;85052.81;;;29.59;27.00
40948;BME280;49382;-25.924;28.194;2022-12-01T10:31:08;85042.28;;;28.24;27.93
40948;BME280;49382;-25.924;28.194;2022-12-01T10:33:34;85040.30;;;28.81;27.10
40948;BME280;49382;-25.924;28.194;2022-12-01T10:35:54;85038.15;;;29.13;26.92
40948;BME280;49382;-25.924;28.194;2022-12-01T10:38:24;85034.51;;;29.32;26.70
40948;BME280;49382;-25.924;28.194;2022-12-01T10:40:46;85033.28;;;28.92;27.21
40948;BME280;49382;-25.924;28.194;2022-12-01T10:43:11;85028.10;;;29.47;24.15
40948;BME280;49382;-25.924;28.194;2022-12-01T10:45:41;85025.12;;;29.07;25.56
40948;BME280;49382;-25.924;28.194;2022-12-01T10:48:11;85024.42;;;29.65;24.65
40948;BME280;49382;-25.924;28.194;2022-12-01T10:50:28;85020.59;;;29.37;23.26
40948;BME280;49382;-25.924;28.194;2022-12-01T10:52:54;85018.85;;;29.22;25.25
40948;BME280;49382;-25.924;28.194;2022-12-01T10:55:26;85012.02;;;28.62;26.04
40948;BME280;49382;-25.924;28.194;2022-12-01T10:57:45;85013.53;;;29.48;24.02
40948;BME280;49382;-25.924;28.194;2022-12-01T11:00:20;85010.40;;;29.20;24.68
40948;BME280;49382;-25.924;28.194;2022-12-01T11:02:37;85007.36;;;28.84;23.36
40948;BME280;49382;-25.924;28.194;2022-12-01T11:05:05;85003.70;;;29.66;23.25
40948;BME280;49382;-25.924;28.194;2022-12-01T11:07:31;85000.27;;;29.33;23.09
40948;BME280;49382;-25.924;28.194;2022-12-01T11:10:04;84996.99;;;29.73;22.71
40948;BME280;49382;-25.924;28.194;2022-12-01T11:12:20;84996.60;;;29.21;22.85
40948;BME280;49382;-25.924;28.194;2022-12-01T11:14:48;84989.08;;;29.13;22.67
40948;BME280;49382;-25.924;28.194;2022-12-01T11:17:22;84983.87;;;29.75;21.82
40948;BME280;49382;-25.924;28.194;2022-12-01T11:19:36;84980.71;;;29.44;22.30
40948;BME280;49382;-25.924;28.194;2022-12-01T11:24:39;84974.84;;;29.39;23.97
40948;BME280;49382;-25.924;28.194;2022-12-01T11:26:55;84970.34;;;28.62;24.02
40948;BME280;49382;-25.924;28.194;2022-12-01T11:29:28;84965.85;;;28.89;24.04
40948;BME280;49382;-25.924;28.194;2022-12-01T11:31:48;84960.35;;;29.09;23.57
40948;BME280;49382;-25.924;28.194;2022-12-01T11:34:18;84958.59;;;29.29;24.53
40948;BME280;49382;-25.924;28.194;2022-12-01T11:36:41;84954.22;;;29.34;25.09
40948;BME280;49382;-25.924;28.194;2022-12-01T11:39:02;84949.17;;;27.93;26.90
40948;BME280;49382;-25.924;28.194;2022-12-01T11:41:31;84942.67;;;28.97;24.33
40948;BME280;49382;-25.924;28.194;2022-12-01T11:43:53;84939.12;;;29.14;25.09
40948;BME280;49382;-25.924;28.194;2022-12-01T11:46:28;84939.09;;;28.97;25.24
40948;BME280;49382;-25.924;28.194;2022-12-01T11:48:55;84935.74;;;29.41;24.72
40948;BME280;49382;-25.924;28.194;2022-12-01T11:53:40;84938.41;;;29.90;24.80
40948;BME280;49382;-25.924;28.194;2022-12-01T11:58:28;84933.05;;;29.67;25.04
40948;BME280;49382;-25.924;28.194;2022-12-01T12:00:55;84929.61;;;29.34;23.58
40948;BME280;49382;-25.924;28.194;2022-12-01T12:03:22;84925.03;;;29.82;23.85
40948;BME280;49382;-25.924;28.194;2022-12-01T12:05:55;84914.85;;;29.31;24.07
40948;BME280;49382;-25.924;28.194;2022-12-01T12:08:19;84904.95;;;27.93;24.99
40948;BME280;49382;-25.924;28.194;2022-12-01T12:10:43;84909.42;;;29.10;24.24
40948;BME280;49382;-25.924;28.194;2022-12-01T12:13:10;84911.38;;;29.53;23.13
40948;BME280;49382;-25.924;28.194;2022-12-01T12:15:35;84908.00;;;29.88;22.44
40948;BME280;49382;-25.924;28.194;2022-12-01T12:18:05;84908.56;;;29.51;22.40
40948;BME280;49382;-25.924;28.194;2022-12-01T12:20:32;84905.90;;;29.56;22.32
40948;BME280;49382;-25.924;28.194;2022-12-01T12:22:49;84903.31;;;29.82;22.32
40948;BME280;49382;-25.924;28.194;2022-12-01T12:25:19;84906.01;;;29.78;22.70
40948;BME280;49382;-25.924;28.194;2022-12-01T12:27:47;84902.71;;;28.59;23.28
40948;BME280;49382;-25.924;28.194;2022-12-01T12:30:12;84898.97;;;29.77;23.49
40948;BME280;49382;-25.924;28.194;2022-12-01T12:34:57;84889.94;;;29.37;23.47
40948;BME280;49382;-25.924;28.194;2022-12-01T12:37:23;84887.11;;;29.37;23.15
40948;BME280;49382;-25.924;28.194;2022-12-01T12:42:16;84887.82;;;29.33;23.47
40948;BME280;49382;-25.924;28.194;2022-12-01T12:44:45;84884.66;;;29.52;23.41
40948;BME280;49382;-25.924;28.194;2022-12-01T12:47:07;84882.70;;;29.00;23.75
40948;BME280;49382;-25.924;28.194;2022-12-01T12:49:35;84883.64;;;29.57;23.37
40948;BME280;49382;-25.924;28.194;2022-12-01T12:51:57;84878.40;;;29.08;23.74
40948;BME280;49382;-25.924;28.194;2022-12-01T12:54:24;84871.18;;;28.59;24.00